createdAt,value
2023-08-12T00:01:31.237Z,100.00
2023-08-12T00:03:59.256Z,100.00
2023-08-12T00:06:27.339Z,100.00
2023-08-12T00:08:55.311Z,100.00
2023-08-12T00:11:23.261Z,100.00
2023-08-12T00:13:51.211Z,100.00
2023-08-12T00:16:19.189Z,100.00
2023-08-12T00:18:48.683Z,100.00
2023-08-12T00:21:16.751Z,100.00
2023-08-12T00:23:45.370Z,100.00
2023-08-12T00:26:13.359Z,100.00
2023-08-12T00:28:41.492Z,100.00
2023-08-12T00:31:09.934Z,100.00
2023-08-12T00:33:37.916Z,100.00
2023-08-12T00:36:08.000Z,100.00
2023-08-12T00:38:35.908Z,100.00
2023-08-12T00:41:03.969Z,100.00
2023-08-12T00:43:31.898Z,100.00
2023-08-12T00:45:59.956Z,100.00
2023-08-12T00:48:28.328Z,100.00
2023-08-12T00:50:56.284Z,100.00
2023-08-12T00:53:25.811Z,100.00
2023-08-12T00:55:53.791Z,100.00
2023-08-12T00:58:21.843Z,100.00
2023-08-12T01:00:49.877Z,100.00
2023-08-12T01:03:18.166Z,100.00
2023-08-12T01:05:46.779Z,100.00
2023-08-12T01:08:14.707Z,100.00
2023-08-12T01:10:51.821Z,100.00
2023-08-12T01:13:32.595Z,100.00
2023-08-12T01:16:04.462Z,100.00
2023-08-12T01:18:33.348Z,100.00
2023-08-12T01:21:04.792Z,100.00
2023-08-12T01:23:34.549Z,100.00
2023-08-12T01:26:02.503Z,100.00
2023-08-12T01:28:30.507Z,100.00
2023-08-12T01:31:06.090Z,100.00
2023-08-12T01:33:41.552Z,100.00
2023-08-12T01:36:14.314Z,100.00
2023-08-12T01:38:45.264Z,100.00
2023-08-12T01:41:14.625Z,100.00
2023-08-12T01:43:43.565Z,100.00
2023-08-12T01:46:12.202Z,100.00
2023-08-12T01:48:40.125Z,100.00
2023-08-12T01:51:09.220Z,100.00
2023-08-12T01:53:37.224Z,100.00
2023-08-12T01:56:06.610Z,100.00
2023-08-12T01:58:34.533Z,100.00
2023-08-12T02:01:02.451Z,100.00
2023-08-12T02:03:30.367Z,100.00
2023-08-12T02:05:58.356Z,100.00
2023-08-12T02:08:26.349Z,100.00
2023-08-12T02:10:54.284Z,100.00
2023-08-12T02:13:23.552Z,100.00
2023-08-12T02:15:51.513Z,100.00
2023-08-12T02:18:19.536Z,100.00
2023-08-12T02:20:49.263Z,100.00
2023-08-12T02:23:17.196Z,100.00
2023-08-12T02:25:45.932Z,100.00
2023-08-12T02:28:13.900Z,100.00
2023-08-12T02:30:44.598Z,100.00
2023-08-12T02:33:12.487Z,100.00
2023-08-12T02:35:40.440Z,100.00
2023-08-12T02:38:08.435Z,100.00
2023-08-12T02:40:36.387Z,100.00
2023-08-12T02:43:04.429Z,100.00
2023-08-12T02:45:32.421Z,100.00
2023-08-12T02:48:01.743Z,100.00
2023-08-12T02:50:29.717Z,100.00
2023-08-12T02:52:57.711Z,100.00
2023-08-12T02:55:25.609Z,100.00
2023-08-12T02:57:53.610Z,100.00
2023-08-12T03:00:21.738Z,100.00
2023-08-12T03:02:49.792Z,100.00
2023-08-12T03:05:19.402Z,100.00
2023-08-12T03:07:50.322Z,100.00
2023-08-12T03:10:18.330Z,100.00
2023-08-12T03:12:46.364Z,100.00
2023-08-12T03:15:14.315Z,100.00
2023-08-12T03:17:42.937Z,100.00
2023-08-12T03:20:11.487Z,100.00
2023-08-12T03:22:40.815Z,100.00
2023-08-12T03:25:09.552Z,100.00
2023-08-12T03:27:37.494Z,100.00
2023-08-12T03:30:05.875Z,100.00
2023-08-12T03:32:34.251Z,100.00
2023-08-12T03:35:02.519Z,100.00
2023-08-12T03:37:30.472Z,100.00
2023-08-12T03:39:59.796Z,100.00
2023-08-12T03:42:27.675Z,100.00
2023-08-12T03:44:55.651Z,100.00
2023-08-12T03:47:25.651Z,100.00
2023-08-12T03:49:58.444Z,100.00
2023-08-12T03:52:26.371Z,100.00
2023-08-12T03:54:55.127Z,100.00
2023-08-12T03:57:26.808Z,100.00
2023-08-12T03:59:54.955Z,100.00
2023-08-12T04:02:23.210Z,100.00
2023-08-12T04:04:54.161Z,100.00
2023-08-12T04:07:22.018Z,100.00
2023-08-12T04:09:50.743Z,100.00
2023-08-12T04:12:18.756Z,100.00
2023-08-12T04:14:48.398Z,100.00
2023-08-12T04:17:16.341Z,100.00
2023-08-12T04:19:44.912Z,100.00
2023-08-12T04:22:12.996Z,100.00
2023-08-12T04:24:40.930Z,100.00
2023-08-12T04:27:09.539Z,100.00
2023-08-12T04:29:38.173Z,100.00
2023-08-12T04:32:08.035Z,100.00
2023-08-12T04:34:36.353Z,100.00
2023-08-12T04:37:04.589Z,100.00
2023-08-12T04:39:33.515Z,100.00
2023-08-12T04:42:01.453Z,100.00
2023-08-12T04:44:29.350Z,100.00
2023-08-12T04:46:57.240Z,100.00
2023-08-12T04:49:26.961Z,100.00
2023-08-12T04:51:54.983Z,100.00
2023-08-12T04:54:22.949Z,100.00
2023-08-12T04:56:50.916Z,100.00
2023-08-12T04:59:19.580Z,100.00
2023-08-12T05:02:02.286Z,100.00
2023-08-12T05:04:33.261Z,100.00
2023-08-12T05:07:01.226Z,100.00
2023-08-12T05:09:29.199Z,100.00
2023-08-12T05:11:57.228Z,100.00
2023-08-12T05:14:25.211Z,100.00
2023-08-12T05:16:53.156Z,100.00
2023-08-12T05:19:21.106Z,100.00
2023-08-12T05:21:50.381Z,100.00
2023-08-12T05:24:18.378Z,100.00
2023-08-12T05:26:46.414Z,100.00
2023-08-12T05:29:14.365Z,100.00
2023-08-12T05:31:42.512Z,100.00
2023-08-12T05:34:10.526Z,100.00
2023-08-12T05:36:38.590Z,100.00
2023-08-12T05:39:08.134Z,100.00
2023-08-12T05:41:36.058Z,100.00
2023-08-12T05:44:04.345Z,100.00
2023-08-12T05:46:32.218Z,100.00
2023-08-12T05:49:00.162Z,100.00
2023-08-12T05:51:30.684Z,100.00
2023-08-12T05:53:58.857Z,100.00
2023-08-12T05:56:28.511Z,100.00
2023-08-12T05:58:56.439Z,100.00
2023-08-12T06:01:24.516Z,100.00
2023-08-12T06:03:52.420Z,100.00
2023-08-12T06:06:20.349Z,100.00
2023-08-12T06:08:48.278Z,100.00
2023-08-12T06:11:16.595Z,100.00
2023-08-12T06:13:45.874Z,100.00
2023-08-12T06:16:13.865Z,100.00
2023-08-12T06:18:41.876Z,100.00
2023-08-12T06:21:09.884Z,100.00
2023-08-12T06:23:38.280Z,100.00
2023-08-12T06:26:06.319Z,100.00
2023-08-12T06:28:34.224Z,100.00
2023-08-12T06:31:03.605Z,100.00
2023-08-12T06:33:31.592Z,100.00
2023-08-12T06:35:59.547Z,100.00
2023-08-12T06:38:27.537Z,100.00
2023-08-12T06:40:55.495Z,100.00
2023-08-12T06:43:23.383Z,100.00
2023-08-12T06:45:54.248Z,100.00
2023-08-12T06:48:23.587Z,100.00
2023-08-12T06:50:55.566Z,100.00
2023-08-12T06:53:23.521Z,100.00
2023-08-12T06:55:51.547Z,100.00
2023-08-12T06:58:19.620Z,100.00
2023-08-12T07:00:47.690Z,100.00
2023-08-12T07:03:15.691Z,100.00
2023-08-12T07:05:45.091Z,100.00
2023-08-12T07:08:13.276Z,100.00
2023-08-12T07:10:42.042Z,100.00
2023-08-12T07:13:10.061Z,100.00
2023-08-12T07:15:38.094Z,100.00
2023-08-12T07:18:07.051Z,100.00
2023-08-12T07:20:35.299Z,100.00
2023-08-12T07:23:04.785Z,100.00
2023-08-12T07:25:32.808Z,100.00
2023-08-12T07:28:01.298Z,100.00
2023-08-12T07:30:29.384Z,100.00
2023-08-12T07:32:57.419Z,100.00
2023-08-12T07:35:25.362Z,100.00
2023-08-12T07:37:53.277Z,100.00
2023-08-12T07:40:22.589Z,100.00
2023-08-12T07:42:50.488Z,100.00
2023-08-12T07:45:18.444Z,100.00
2023-08-12T07:47:46.440Z,100.00
2023-08-12T07:50:14.398Z,100.00
2023-08-12T07:52:42.360Z,100.00
2023-08-12T07:55:10.747Z,100.00
2023-08-12T07:57:40.121Z,100.00
2023-08-12T08:00:11.035Z,100.00
2023-08-12T08:02:42.340Z,100.00
2023-08-12T08:05:10.855Z,100.00
2023-08-12T08:07:38.829Z,100.00
2023-08-12T08:10:07.839Z,100.00
2023-08-12T08:12:35.945Z,100.00
2023-08-12T08:15:05.935Z,100.00
2023-08-12T08:17:35.660Z,100.00
2023-08-12T08:20:07.154Z,100.00
2023-08-12T08:22:35.169Z,100.00
2023-08-12T08:25:03.131Z,100.00
2023-08-12T08:27:31.155Z,100.00
2023-08-12T08:29:59.308Z,100.00
2023-08-12T08:32:28.649Z,100.00
2023-08-12T08:34:56.899Z,100.00
2023-08-12T08:37:25.062Z,100.00
2023-08-12T08:39:53.062Z,100.00
2023-08-12T08:42:23.062Z,100.00
2023-08-12T08:44:54.215Z,100.00
2023-08-12T08:47:27.526Z,100.00
2023-08-12T08:49:58.223Z,100.00
2023-08-12T08:52:26.416Z,100.00
2023-08-12T08:54:54.870Z,100.00
2023-08-12T08:57:25.128Z,100.00
2023-08-12T08:59:59.018Z,100.00
2023-08-12T09:02:28.570Z,100.00
2023-08-12T09:04:59.225Z,100.00
2023-08-12T09:07:27.633Z,100.00
2023-08-12T09:09:57.730Z,100.00
2023-08-12T09:12:27.250Z,100.00
2023-08-12T09:14:55.238Z,100.00
2023-08-12T09:17:23.658Z,100.00
2023-08-12T09:19:52.271Z,100.00
2023-08-12T09:22:21.831Z,100.00
2023-08-12T09:24:52.740Z,100.00
2023-08-12T09:27:20.948Z,100.00
2023-08-12T09:29:48.891Z,100.00
2023-08-12T09:32:21.582Z,100.00
2023-08-12T09:34:50.004Z,100.00
2023-08-12T09:37:18.611Z,93.00
2023-08-12T09:39:49.965Z,99.78
2023-08-12T09:42:18.723Z,100.00
2023-08-12T09:44:47.487Z,98.02
2023-08-12T09:47:15.708Z,98.75
2023-08-12T09:49:43.771Z,96.47
2023-08-12T09:52:11.856Z,99.06
2023-08-12T09:54:40.668Z,99.74
2023-08-12T09:57:12.742Z,95.87
2023-08-12T09:59:47.524Z,90.05
2023-08-12T10:02:19.639Z,91.93
2023-08-12T10:04:51.443Z,82.84
2023-08-12T10:07:20.261Z,84.14
2023-08-12T10:09:48.889Z,87.38
2023-08-12T10:12:20.053Z,89.70
2023-08-12T10:14:49.529Z,86.31
2023-08-12T10:17:29.578Z,83.74
2023-08-12T10:20:09.138Z,84.34
2023-08-12T10:22:38.435Z,86.55
2023-08-12T10:25:06.760Z,80.75
2023-08-12T10:27:36.143Z,83.78
2023-08-12T10:30:05.518Z,83.01
2023-08-12T10:32:34.290Z,85.37
2023-08-12T10:35:04.145Z,83.01
2023-08-12T10:37:35.060Z,85.14
2023-08-12T10:40:08.359Z,85.49
2023-08-12T10:42:44.871Z,80.22
2023-08-12T10:45:13.921Z,76.96
2023-08-12T10:47:43.171Z,77.76
2023-08-12T10:50:20.418Z,74.41
2023-08-12T10:52:49.208Z,75.76
2023-08-12T10:55:22.276Z,79.94
2023-08-12T10:57:56.088Z,70.46
2023-08-12T11:00:26.571Z,67.09
2023-08-12T11:02:55.892Z,63.22
2023-08-12T11:05:23.934Z,59.98
2023-08-12T11:07:59.159Z,61.58
2023-08-12T11:10:30.652Z,59.07
2023-08-12T11:13:01.776Z,58.36
2023-08-12T11:15:34.555Z,58.44
2023-08-12T11:18:05.521Z,59.79
2023-08-12T11:20:34.183Z,56.95
2023-08-12T11:23:02.854Z,57.62
2023-08-12T11:25:32.027Z,56.35
2023-08-12T11:28:01.630Z,55.44
2023-08-12T11:30:32.808Z,56.46
2023-08-12T11:33:04.012Z,56.25
2023-08-12T11:35:32.887Z,56.09
2023-08-12T11:38:01.340Z,53.85
2023-08-12T11:40:30.733Z,54.08
2023-08-12T11:42:59.085Z,54.21
2023-08-12T11:45:29.597Z,55.27
2023-08-12T11:47:57.694Z,53.43
2023-08-12T11:50:28.195Z,51.27
2023-08-12T11:52:58.521Z,51.78
2023-08-12T11:55:27.166Z,52.17
2023-08-12T11:57:55.050Z,50.13
2023-08-12T12:00:24.996Z,49.93
2023-08-12T12:02:56.101Z,52.05
2023-08-12T12:05:25.844Z,51.29
2023-08-12T12:07:54.706Z,51.14
2023-08-12T12:10:23.977Z,52.01
2023-08-12T12:12:51.959Z,51.86
2023-08-12T12:15:20.402Z,52.75
2023-08-12T12:17:50.210Z,53.45
2023-08-12T12:20:20.078Z,53.65
2023-08-12T12:22:49.818Z,55.68
2023-08-12T12:25:20.176Z,55.77
2023-08-12T12:27:49.120Z,55.32
2023-08-12T12:30:18.344Z,55.17
2023-08-12T12:32:47.196Z,55.43
2023-08-12T12:35:15.166Z,54.08
2023-08-12T12:37:44.770Z,53.42
2023-08-12T12:40:13.796Z,53.68
2023-08-12T12:42:41.740Z,54.68
2023-08-12T12:45:11.218Z,54.84
2023-08-12T12:47:39.837Z,54.34
2023-08-12T12:50:09.082Z,54.27
2023-08-12T12:52:37.281Z,55.89
2023-08-12T12:55:07.150Z,53.94
2023-08-12T12:57:35.501Z,54.31
2023-08-12T13:00:05.227Z,55.75
2023-08-12T13:02:33.314Z,56.23
2023-08-12T13:05:01.290Z,56.15
2023-08-12T13:07:29.185Z,57.30
2023-08-12T13:09:57.123Z,58.03
2023-08-12T13:12:26.352Z,57.51
2023-08-12T13:14:54.306Z,56.60
2023-08-12T13:17:22.193Z,54.50
2023-08-12T13:19:50.065Z,52.83
2023-08-12T13:22:18.164Z,51.34
2023-08-12T13:24:46.173Z,51.82
2023-08-12T13:27:15.867Z,51.09
2023-08-12T13:29:45.325Z,49.86
2023-08-12T13:32:13.562Z,50.23
2023-08-12T13:34:41.585Z,49.83
2023-08-12T13:37:10.080Z,49.68
2023-08-12T13:39:38.018Z,49.93
2023-08-12T13:42:05.975Z,51.31
2023-08-12T13:44:33.936Z,51.99
2023-08-12T13:47:03.236Z,52.79
2023-08-12T13:49:31.120Z,53.89
2023-08-12T13:52:00.294Z,55.37
2023-08-12T13:54:28.196Z,56.16
2023-08-12T13:56:56.093Z,57.78
2023-08-12T13:59:24.142Z,58.53
2023-08-12T14:01:52.045Z,58.46
2023-08-12T14:04:21.320Z,58.16
2023-08-12T14:06:50.770Z,58.28
2023-08-12T14:09:21.291Z,58.21
2023-08-12T14:11:49.270Z,58.96
2023-08-12T14:14:17.473Z,60.27
2023-08-12T14:16:45.385Z,59.51
2023-08-12T14:19:13.735Z,60.78
2023-08-12T14:21:42.980Z,60.15
2023-08-12T14:24:10.925Z,60.68
2023-08-12T14:26:39.633Z,61.72
2023-08-12T14:29:07.936Z,62.94
2023-08-12T14:31:36.437Z,62.00
2023-08-12T14:34:05.352Z,63.98
2023-08-12T14:36:33.844Z,61.37
2023-08-12T14:39:03.260Z,62.65
2023-08-12T14:41:31.194Z,65.44
2023-08-12T14:43:59.141Z,67.51
2023-08-12T14:46:27.425Z,66.03
2023-08-12T14:48:57.776Z,64.66
2023-08-12T14:51:25.774Z,62.38
2023-08-12T14:53:53.652Z,67.22
2023-08-12T14:56:22.965Z,65.32
2023-08-12T14:58:52.145Z,63.78
2023-08-12T15:01:20.900Z,63.10
2023-08-12T15:03:49.253Z,64.45
2023-08-12T15:06:18.261Z,65.77
2023-08-12T15:08:46.200Z,68.13
2023-08-12T15:11:14.313Z,67.14
2023-08-12T15:13:44.583Z,68.52
2023-08-12T15:16:13.743Z,69.13
2023-08-12T15:18:43.624Z,67.94
2023-08-12T15:21:11.557Z,70.58
2023-08-12T15:23:39.542Z,71.20
2023-08-12T15:26:07.614Z,69.19
2023-08-12T15:28:35.556Z,70.49
2023-08-12T15:31:05.073Z,73.50
2023-08-12T15:33:33.011Z,73.73
2023-08-12T15:36:00.902Z,74.35
2023-08-12T15:38:28.839Z,75.60
2023-08-12T15:40:56.785Z,73.95
2023-08-12T15:43:24.726Z,75.90
2023-08-12T15:45:52.722Z,74.33
2023-08-12T15:48:22.122Z,75.80
2023-08-12T15:50:50.137Z,75.30
2023-08-12T15:53:18.163Z,75.56
2023-08-12T15:55:49.059Z,74.54
2023-08-12T15:58:19.939Z,76.71
2023-08-12T16:00:49.813Z,76.55
2023-08-12T16:03:18.029Z,76.31
2023-08-12T16:05:47.894Z,83.20
2023-08-12T16:08:16.010Z,79.70
2023-08-12T16:10:43.934Z,78.85
2023-08-12T16:13:11.925Z,80.53
2023-08-12T16:15:39.938Z,80.10
2023-08-12T16:18:08.143Z,80.84
2023-08-12T16:20:36.167Z,83.77
2023-08-12T16:23:06.284Z,81.21
2023-08-12T16:25:34.309Z,82.52
2023-08-12T16:28:02.280Z,82.55
2023-08-12T16:30:30.759Z,84.30
2023-08-12T16:32:58.722Z,82.16
2023-08-12T16:35:26.713Z,84.68
2023-08-12T16:37:55.058Z,87.15
2023-08-12T16:40:24.935Z,88.90
2023-08-12T16:42:52.939Z,84.74
2023-08-12T16:45:21.071Z,84.51
2023-08-12T16:47:49.034Z,84.27
2023-08-12T16:50:17.237Z,84.66
2023-08-12T16:52:45.130Z,83.58
2023-08-12T16:55:13.015Z,83.73
2023-08-12T16:57:42.375Z,82.48
2023-08-12T17:00:11.900Z,84.11
2023-08-12T17:02:39.812Z,84.28
2023-08-12T17:05:08.608Z,84.47
2023-08-12T17:07:36.532Z,85.58
2023-08-12T17:10:05.167Z,87.71
2023-08-12T17:12:33.222Z,86.67
2023-08-12T17:15:02.773Z,86.16
2023-08-12T17:17:30.698Z,86.09
2023-08-12T17:19:58.647Z,85.50
2023-08-12T17:22:26.617Z,88.80
2023-08-12T17:24:54.568Z,88.18
2023-08-12T17:27:22.634Z,90.19
2023-08-12T17:29:50.594Z,88.31
2023-08-12T17:32:20.004Z,90.31
2023-08-12T17:34:47.980Z,89.94
2023-08-12T17:37:15.909Z,92.60
2023-08-12T17:39:43.833Z,87.85
2023-08-12T17:42:11.943Z,91.56
2023-08-12T17:44:40.100Z,90.46
2023-08-12T17:47:08.009Z,90.47
2023-08-12T17:49:37.286Z,92.35
2023-08-12T17:52:05.642Z,93.12
2023-08-12T17:54:33.844Z,96.73
2023-08-12T17:57:01.775Z,97.86
2023-08-12T17:59:29.728Z,95.50
2023-08-12T18:01:57.801Z,98.22
2023-08-12T18:04:25.827Z,94.63
2023-08-12T18:06:55.178Z,91.90
2023-08-12T18:09:23.204Z,91.44
2023-08-12T18:11:51.263Z,94.88
2023-08-12T18:14:22.385Z,98.13
2023-08-12T18:16:50.450Z,98.03
2023-08-12T18:19:18.399Z,100.00
2023-08-12T18:21:46.292Z,100.00
2023-08-12T18:24:16.378Z,100.00
2023-08-12T18:26:44.377Z,100.00
2023-08-12T18:29:12.296Z,100.00
2023-08-12T18:31:40.775Z,100.00
2023-08-12T18:34:09.212Z,100.00
2023-08-12T18:36:37.103Z,100.00
2023-08-12T18:39:05.131Z,100.00
2023-08-12T18:41:34.871Z,100.00
2023-08-12T18:44:02.779Z,100.00
2023-08-12T18:46:30.693Z,100.00
2023-08-12T18:48:58.603Z,100.00
2023-08-12T18:51:26.549Z,100.00
2023-08-12T18:53:56.539Z,100.00
2023-08-12T18:56:25.682Z,100.00
2023-08-12T18:58:54.947Z,100.00
2023-08-12T19:01:23.326Z,100.00
2023-08-12T19:03:51.444Z,100.00
2023-08-12T19:06:19.645Z,100.00
2023-08-12T19:08:47.563Z,100.00
2023-08-12T19:11:15.597Z,100.00
2023-08-12T19:13:43.540Z,100.00
2023-08-12T19:16:12.995Z,100.00
2023-08-12T19:18:40.989Z,100.00
2023-08-12T19:21:08.931Z,100.00
2023-08-12T19:23:36.986Z,100.00
2023-08-12T19:26:05.190Z,100.00
2023-08-12T19:28:35.376Z,100.00
2023-08-12T19:31:03.316Z,100.00
2023-08-12T19:33:35.888Z,100.00
2023-08-12T19:36:03.938Z,100.00
2023-08-12T19:38:31.965Z,100.00
2023-08-12T19:41:00.755Z,100.00
2023-08-12T19:43:28.677Z,100.00
2023-08-12T19:45:56.564Z,100.00
2023-08-12T19:48:24.657Z,100.00
2023-08-12T19:50:55.043Z,100.00
2023-08-12T19:53:23.298Z,100.00
2023-08-12T19:55:51.527Z,100.00
2023-08-12T19:58:19.614Z,100.00
2023-08-12T20:00:47.613Z,100.00
2023-08-12T20:03:15.643Z,100.00
2023-08-12T20:05:43.664Z,100.00
2023-08-12T20:08:13.287Z,100.00
2023-08-12T20:10:41.294Z,100.00
2023-08-12T20:13:09.247Z,100.00
2023-08-12T20:15:37.195Z,100.00
2023-08-12T20:18:05.819Z,100.00
2023-08-12T20:20:34.117Z,100.00
2023-08-12T20:23:05.994Z,100.00
2023-08-12T20:25:36.915Z,100.00
2023-08-12T20:28:05.660Z,100.00
2023-08-12T20:30:34.768Z,100.00
2023-08-12T20:33:03.012Z,100.00
2023-08-12T20:35:31.430Z,100.00
2023-08-12T20:37:59.636Z,100.00
2023-08-12T20:40:27.667Z,100.00
2023-08-12T20:42:57.011Z,100.00
2023-08-12T20:45:25.004Z,100.00
2023-08-12T20:47:53.239Z,100.00
2023-08-12T20:50:21.729Z,100.00
2023-08-12T20:52:49.713Z,100.00
2023-08-12T20:55:17.767Z,100.00
2023-08-12T20:57:47.169Z,100.00
2023-08-12T21:00:17.156Z,100.00
2023-08-12T21:02:46.431Z,100.00
2023-08-12T21:05:14.610Z,100.00
2023-08-12T21:07:42.869Z,100.00
2023-08-12T21:10:11.545Z,100.00
2023-08-12T21:12:39.662Z,100.00
2023-08-12T21:15:08.455Z,100.00
2023-08-12T21:17:37.778Z,100.00
2023-08-12T21:20:06.869Z,100.00
2023-08-12T21:22:34.804Z,100.00
2023-08-12T21:25:02.873Z,100.00
2023-08-12T21:27:30.789Z,100.00
2023-08-12T21:29:58.869Z,100.00
2023-08-12T21:32:26.857Z,100.00
2023-08-12T21:34:56.278Z,100.00
2023-08-12T21:37:24.197Z,100.00
2023-08-12T21:39:52.187Z,100.00
2023-08-12T21:42:20.676Z,100.00
2023-08-12T21:44:48.641Z,100.00
2023-08-12T21:47:16.763Z,100.00
2023-08-12T21:49:46.248Z,100.00
2023-08-12T21:52:15.642Z,100.00
2023-08-12T21:54:44.453Z,100.00
2023-08-12T21:57:12.673Z,100.00
2023-08-12T21:59:41.626Z,100.00
2023-08-12T22:02:11.165Z,100.00
2023-08-12T22:04:41.205Z,100.00
2023-08-12T22:07:09.332Z,100.00
2023-08-12T22:09:38.805Z,100.00
2023-08-12T22:12:07.102Z,100.00
2023-08-12T22:14:40.279Z,100.00
2023-08-12T22:17:08.447Z,100.00
2023-08-12T22:19:36.370Z,100.00
2023-08-12T22:22:17.541Z,100.00
2023-08-12T22:24:48.678Z,100.00
2023-08-12T22:27:16.650Z,100.00
2023-08-12T22:29:44.621Z,100.00
2023-08-12T22:32:12.749Z,100.00
2023-08-12T22:34:41.031Z,100.00
2023-08-12T22:37:11.024Z,100.00
2023-08-12T22:39:39.059Z,100.00
2023-08-12T22:42:08.860Z,100.00
2023-08-12T22:44:36.801Z,100.00
2023-08-12T22:47:05.476Z,100.00
2023-08-12T22:49:33.529Z,100.00
2023-08-12T22:52:01.767Z,100.00
2023-08-12T22:54:30.572Z,100.00
2023-08-12T22:56:58.593Z,100.00
2023-08-12T22:59:28.197Z,100.00
2023-08-12T23:01:56.416Z,100.00
2023-08-12T23:04:24.519Z,100.00
2023-08-12T23:06:55.497Z,100.00
2023-08-12T23:09:23.668Z,100.00
2023-08-12T23:11:52.005Z,100.00
2023-08-12T23:14:20.647Z,100.00
2023-08-12T23:16:49.990Z,100.00
2023-08-12T23:19:18.305Z,100.00
2023-08-12T23:21:46.276Z,100.00
2023-08-12T23:24:14.202Z,100.00
2023-08-12T23:26:42.230Z,100.00
2023-08-12T23:29:10.270Z,100.00
2023-08-12T23:31:38.283Z,100.00
2023-08-12T23:34:07.792Z,100.00
2023-08-12T23:36:35.862Z,100.00
2023-08-12T23:39:04.668Z,100.00
2023-08-12T23:41:33.028Z,100.00
2023-08-12T23:44:01.057Z,100.00
2023-08-12T23:46:29.183Z,100.00
2023-08-12T23:48:57.135Z,100.00
2023-08-12T23:51:26.469Z,100.00
2023-08-12T23:53:54.466Z,100.00
2023-08-12T23:56:22.388Z,100.00
2023-08-12T23:58:50.328Z,100.00
